sensor_id;sensor_type;location;lat;lon;timestamp;temperature;humidity
37786;DHT22;23625;48.784;9.336;2022-10-17T00:00:13;13.00;99.90
37786;DHT22;23625;48.784;9.336;2022-10-17T00:02:39;13.00;99.90
37786;DHT22;23625;48.784;9.336;2022-10-17T00:05:05;13.10;99.90
37786;DHT22;23625;48.784;9.336;2022-10-17T00:07:30;13.00;99.90
37786;DHT22;23625;48.784;9.336;2022-10-17T00:09:56;13.00;99.90
37786;DHT22;23625;48.784;9.336;2022-10-17T00:12:21;13.00;99.90
37786;DHT22;23625;48.784;9.336;2022-10-17T00:14:47;12.90;99.90
37786;DHT22;23625;48.784;9.336;2022-10-17T00:17:12;12.90;99.90
37786;DHT22;23625;48.784;9.336;2022-10-17T00:19:39;12.90;99.90
37786;DHT22;23625;48.784;9.336;2022-10-17T00:22:05;12.90;99.90
37786;DHT22;23625;48.784;9.336;2022-10-17T00:24:31;13.00;99.90
37786;DHT22;23625;48.784;9.336;2022-10-17T00:26:56;12.90;99.90
37786;DHT22;23625;48.784;9.336;2022-10-17T00:29:22;12.90;99.90
37786;DHT22;23625;48.784;9.336;2022-10-17T00:31:47;12.90;99.90
37786;DHT22;23625;48.784;9.336;2022-10-17T00:34:13;12.90;99.90
37786;DHT22;23625;48.784;9.336;2022-10-17T00:36:39;12.90;99.90
37786;DHT22;23625;48.784;9.336;2022-10-17T00:39:04;12.90;99.90
37786;DHT22;23625;48.784;9.336;2022-10-17T00:41:31;12.90;99.90
37786;DHT22;23625;48.784;9.336;2022-10-17T00:44:06;12.90;99.90
37786;DHT22;23625;48.784;9.336;2022-10-17T00:46:50;12.90;99.90
37786;DHT22;23625;48.784;9.336;2022-10-17T00:49:16;13.00;99.90
37786;DHT22;23625;48.784;9.336;2022-10-17T00:51:45;13.00;99.90
37786;DHT22;23625;48.784;9.336;2022-10-17T00:54:14;13.00;99.90
37786;DHT22;23625;48.784;9.336;2022-10-17T00:56:41;13.10;99.90
37786;DHT22;23625;48.784;9.336;2022-10-17T00:59:08;13.10;99.90
37786;DHT22;23625;48.784;9.336;2022-10-17T01:01:35;13.10;99.90
37786;DHT22;23625;48.784;9.336;2022-10-17T01:04:01;13.10;99.90
37786;DHT22;23625;48.784;9.336;2022-10-17T01:06:26;13.10;99.90
37786;DHT22;23625;48.784;9.336;2022-10-17T01:08:52;13.10;99.90
37786;DHT22;23625;48.784;9.336;2022-10-17T01:14:19;13.00;99.90
37786;DHT22;23625;48.784;9.336;2022-10-17T01:22:13;12.90;99.90
37786;DHT22;23625;48.784;9.336;2022-10-17T01:33:14;12.80;99.90
37786;DHT22;23625;48.784;9.336;2022-10-17T01:38:48;12.70;99.90
37786;DHT22;23625;48.784;9.336;2022-10-17T01:41:39;12.70;99.90
37786;DHT22;23625;48.784;9.336;2022-10-17T01:44:24;12.60;99.90
37786;DHT22;23625;48.784;9.336;2022-10-17T01:46:59;12.60;99.90
37786;DHT22;23625;48.784;9.336;2022-10-17T01:49:27;12.50;99.90
37786;DHT22;23625;48.784;9.336;2022-10-17T01:51:58;12.50;99.90
37786;DHT22;23625;48.784;9.336;2022-10-17T01:55:00;12.50;99.90
37786;DHT22;23625;48.784;9.336;2022-10-17T01:57:35;12.50;99.90
37786;DHT22;23625;48.784;9.336;2022-10-17T02:00:05;12.40;99.90
37786;DHT22;23625;48.784;9.336;2022-10-17T02:02:34;12.40;99.90
37786;DHT22;23625;48.784;9.336;2022-10-17T02:05:02;12.40;99.90
37786;DHT22;23625;48.784;9.336;2022-10-17T02:07:28;12.40;99.90
37786;DHT22;23625;48.784;9.336;2022-10-17T02:09:54;12.30;99.90
37786;DHT22;23625;48.784;9.336;2022-10-17T02:15:50;12.30;99.90
37786;DHT22;23625;48.784;9.336;2022-10-17T02:21:07;12.30;99.90
37786;DHT22;23625;48.784;9.336;2022-10-17T02:26:29;12.20;99.90
37786;DHT22;23625;48.784;9.336;2022-10-17T02:29:18;12.20;99.90
37786;DHT22;23625;48.784;9.336;2022-10-17T02:31:57;12.20;99.90
37786;DHT22;23625;48.784;9.336;2022-10-17T02:34:26;12.20;99.90
37786;DHT22;23625;48.784;9.336;2022-10-17T02:37:01;12.30;99.90
37786;DHT22;23625;48.784;9.336;2022-10-17T02:39:28;12.30;99.90
37786;DHT22;23625;48.784;9.336;2022-10-17T02:41:56;12.20;99.90
37786;DHT22;23625;48.784;9.336;2022-10-17T02:44:24;12.20;99.90
37786;DHT22;23625;48.784;9.336;2022-10-17T02:47:04;12.20;99.90
37786;DHT22;23625;48.784;9.336;2022-10-17T02:49:36;12.30;99.90
37786;DHT22;23625;48.784;9.336;2022-10-17T02:52:59;12.40;99.90
37786;DHT22;23625;48.784;9.336;2022-10-17T02:55:08;12.40;99.90
37786;DHT22;23625;48.784;9.336;2022-10-17T02:57:41;12.30;99.90
37786;DHT22;23625;48.784;9.336;2022-10-17T03:00:12;12.30;99.90
37786;DHT22;23625;48.784;9.336;2022-10-17T03:02:49;12.30;99.90
37786;DHT22;23625;48.784;9.336;2022-10-17T03:05:24;12.20;99.90
37786;DHT22;23625;48.784;9.336;2022-10-17T03:07:50;12.20;99.90
37786;DHT22;23625;48.784;9.336;2022-10-17T03:10:17;12.20;99.90
37786;DHT22;23625;48.784;9.336;2022-10-17T03:12:42;12.20;99.90
37786;DHT22;23625;48.784;9.336;2022-10-17T03:15:08;12.10;99.90
37786;DHT22;23625;48.784;9.336;2022-10-17T03:17:35;12.00;99.90
37786;DHT22;23625;48.784;9.336;2022-10-17T03:20:00;12.00;99.90
37786;DHT22;23625;48.784;9.336;2022-10-17T03:22:26;12.00;99.90
37786;DHT22;23625;48.784;9.336;2022-10-17T03:24:52;11.90;99.90
37786;DHT22;23625;48.784;9.336;2022-10-17T03:27:17;11.80;99.90
37786;DHT22;23625;48.784;9.336;2022-10-17T03:29:43;11.80;99.90
37786;DHT22;23625;48.784;9.336;2022-10-17T03:32:08;11.80;99.90
37786;DHT22;23625;48.784;9.336;2022-10-17T03:34:34;11.80;99.90
37786;DHT22;23625;48.784;9.336;2022-10-17T03:36:59;11.70;99.90
37786;DHT22;23625;48.784;9.336;2022-10-17T03:39:25;11.70;99.90
37786;DHT22;23625;48.784;9.336;2022-10-17T03:41:51;11.70;99.90
37786;DHT22;23625;48.784;9.336;2022-10-17T03:44:16;11.80;99.90
37786;DHT22;23625;48.784;9.336;2022-10-17T03:46:42;11.80;99.90
37786;DHT22;23625;48.784;9.336;2022-10-17T03:49:10;11.70;99.90
37786;DHT22;23625;48.784;9.336;2022-10-17T03:51:36;11.70;99.90
37786;DHT22;23625;48.784;9.336;2022-10-17T03:54:02;11.60;99.90
37786;DHT22;23625;48.784;9.336;2022-10-17T03:56:28;11.60;99.90
37786;DHT22;23625;48.784;9.336;2022-10-17T03:58:54;11.60;99.90
37786;DHT22;23625;48.784;9.336;2022-10-17T04:01:20;11.60;99.90
37786;DHT22;23625;48.784;9.336;2022-10-17T04:03:53;11.50;99.90
37786;DHT22;23625;48.784;9.336;2022-10-17T04:06:20;11.50;99.90
37786;DHT22;23625;48.784;9.336;2022-10-17T04:08:46;11.50;99.90
37786;DHT22;23625;48.784;9.336;2022-10-17T04:11:17;11.50;99.90
37786;DHT22;23625;48.784;9.336;2022-10-17T04:13:44;11.40;99.90
37786;DHT22;23625;48.784;9.336;2022-10-17T04:16:13;11.50;99.90
37786;DHT22;23625;48.784;9.336;2022-10-17T04:18:39;11.40;99.90
37786;DHT22;23625;48.784;9.336;2022-10-17T04:21:05;11.40;99.90
37786;DHT22;23625;48.784;9.336;2022-10-17T04:23:32;11.40;99.90
37786;DHT22;23625;48.784;9.336;2022-10-17T04:25:59;11.40;99.90
37786;DHT22;23625;48.784;9.336;2022-10-17T04:28:25;11.40;99.90
37786;DHT22;23625;48.784;9.336;2022-10-17T04:31:05;11.40;99.90
37786;DHT22;23625;48.784;9.336;2022-10-17T04:33:31;11.50;99.90
37786;DHT22;23625;48.784;9.336;2022-10-17T04:36:02;11.40;99.90
37786;DHT22;23625;48.784;9.336;2022-10-17T04:38:29;11.40;99.90
37786;DHT22;23625;48.784;9.336;2022-10-17T04:41:02;11.50;99.90
37786;DHT22;23625;48.784;9.336;2022-10-17T04:43:33;11.40;99.90
37786;DHT22;23625;48.784;9.336;2022-10-17T04:46:00;11.30;99.90
37786;DHT22;23625;48.784;9.336;2022-10-17T04:48:27;11.30;99.90
37786;DHT22;23625;48.784;9.336;2022-10-17T04:51:07;11.40;99.90
37786;DHT22;23625;48.784;9.336;2022-10-17T04:53:35;11.40;99.90
37786;DHT22;23625;48.784;9.336;2022-10-17T04:56:01;11.50;99.90
37786;DHT22;23625;48.784;9.336;2022-10-17T04:58:31;11.40;99.90
37786;DHT22;23625;48.784;9.336;2022-10-17T05:00:57;11.40;99.90
37786;DHT22;23625;48.784;9.336;2022-10-17T05:03:22;11.40;99.90
37786;DHT22;23625;48.784;9.336;2022-10-17T05:05:48;11.30;99.90
37786;DHT22;23625;48.784;9.336;2022-10-17T05:08:13;11.40;99.90
37786;DHT22;23625;48.784;9.336;2022-10-17T05:10:42;11.40;99.90
37786;DHT22;23625;48.784;9.336;2022-10-17T05:13:08;11.50;99.90
37786;DHT22;23625;48.784;9.336;2022-10-17T05:15:35;11.50;99.90
37786;DHT22;23625;48.784;9.336;2022-10-17T05:18:01;11.50;99.90
37786;DHT22;23625;48.784;9.336;2022-10-17T05:20:27;11.50;99.90
37786;DHT22;23625;48.784;9.336;2022-10-17T05:22:52;11.70;99.90
37786;DHT22;23625;48.784;9.336;2022-10-17T05:25:19;11.40;99.90
37786;DHT22;23625;48.784;9.336;2022-10-17T05:27:45;11.30;99.90
37786;DHT22;23625;48.784;9.336;2022-10-17T05:30:11;11.30;99.90
37786;DHT22;23625;48.784;9.336;2022-10-17T05:32:37;11.30;99.90
37786;DHT22;23625;48.784;9.336;2022-10-17T05:35:03;11.30;99.90
37786;DHT22;23625;48.784;9.336;2022-10-17T05:37:30;11.30;99.90
37786;DHT22;23625;48.784;9.336;2022-10-17T05:39:56;11.40;99.90
37786;DHT22;23625;48.784;9.336;2022-10-17T05:42:21;11.30;99.90
37786;DHT22;23625;48.784;9.336;2022-10-17T05:44:47;11.30;99.90
37786;DHT22;23625;48.784;9.336;2022-10-17T05:47:12;11.30;99.90
37786;DHT22;23625;48.784;9.336;2022-10-17T05:49:38;11.30;99.90
37786;DHT22;23625;48.784;9.336;2022-10-17T05:52:04;11.30;99.90
37786;DHT22;23625;48.784;9.336;2022-10-17T05:54:30;11.30;99.90
37786;DHT22;23625;48.784;9.336;2022-10-17T05:56:56;11.20;99.90
37786;DHT22;23625;48.784;9.336;2022-10-17T05:59:24;11.20;99.90
37786;DHT22;23625;48.784;9.336;2022-10-17T06:01:49;11.20;99.90
37786;DHT22;23625;48.784;9.336;2022-10-17T06:04:15;11.20;99.90
37786;DHT22;23625;48.784;9.336;2022-10-17T06:06:40;11.20;99.90
37786;DHT22;23625;48.784;9.336;2022-10-17T06:09:07;11.20;99.90
37786;DHT22;23625;48.784;9.336;2022-10-17T06:11:33;11.20;99.90
37786;DHT22;23625;48.784;9.336;2022-10-17T06:13:58;11.20;99.90
37786;DHT22;23625;48.784;9.336;2022-10-17T06:16:24;11.20;99.90
37786;DHT22;23625;48.784;9.336;2022-10-17T06:18:50;11.50;99.90
37786;DHT22;23625;48.784;9.336;2022-10-17T06:21:22;11.60;99.90
37786;DHT22;23625;48.784;9.336;2022-10-17T06:23:47;11.60;99.90
37786;DHT22;23625;48.784;9.336;2022-10-17T06:26:13;11.60;99.90
37786;DHT22;23625;48.784;9.336;2022-10-17T06:28:39;11.70;99.90
37786;DHT22;23625;48.784;9.336;2022-10-17T06:31:06;11.80;99.90
37786;DHT22;23625;48.784;9.336;2022-10-17T06:33:32;11.90;99.90
37786;DHT22;23625;48.784;9.336;2022-10-17T06:35:58;12.00;99.90
37786;DHT22;23625;48.784;9.336;2022-10-17T06:38:24;12.00;99.90
37786;DHT22;23625;48.784;9.336;2022-10-17T06:40:49;12.10;99.90
37786;DHT22;23625;48.784;9.336;2022-10-17T06:43:15;12.20;99.90
37786;DHT22;23625;48.784;9.336;2022-10-17T06:45:41;12.30;99.90
37786;DHT22;23625;48.784;9.336;2022-10-17T06:48:07;12.30;99.90
37786;DHT22;23625;48.784;9.336;2022-10-17T06:50:34;12.30;99.90
37786;DHT22;23625;48.784;9.336;2022-10-17T06:52:59;12.30;99.90
37786;DHT22;23625;48.784;9.336;2022-10-17T06:55:25;12.30;99.90
37786;DHT22;23625;48.784;9.336;2022-10-17T06:57:53;12.30;99.90
37786;DHT22;23625;48.784;9.336;2022-10-17T07:00:19;12.40;99.90
37786;DHT22;23625;48.784;9.336;2022-10-17T07:02:45;12.40;99.90
37786;DHT22;23625;48.784;9.336;2022-10-17T07:05:11;12.30;99.90
37786;DHT22;23625;48.784;9.336;2022-10-17T07:07:36;12.30;99.90
37786;DHT22;23625;48.784;9.336;2022-10-17T07:10:02;12.30;99.90
37786;DHT22;23625;48.784;9.336;2022-10-17T07:12:33;12.30;99.90
37786;DHT22;23625;48.784;9.336;2022-10-17T07:14:59;12.30;99.90
37786;DHT22;23625;48.784;9.336;2022-10-17T07:17:25;12.40;99.90
37786;DHT22;23625;48.784;9.336;2022-10-17T07:19:51;12.50;99.90
37786;DHT22;23625;48.784;9.336;2022-10-17T07:22:16;12.70;99.90
37786;DHT22;23625;48.784;9.336;2022-10-17T07:24:42;12.80;99.90
37786;DHT22;23625;48.784;9.336;2022-10-17T07:27:07;13.10;99.90
37786;DHT22;23625;48.784;9.336;2022-10-17T07:29:33;13.30;99.90
37786;DHT22;23625;48.784;9.336;2022-10-17T07:31:59;13.50;99.90
37786;DHT22;23625;48.784;9.336;2022-10-17T07:34:24;13.70;99.90
37786;DHT22;23625;48.784;9.336;2022-10-17T07:36:52;13.90;99.90
37786;DHT22;23625;48.784;9.336;2022-10-17T07:39:18;14.10;99.90
37786;DHT22;23625;48.784;9.336;2022-10-17T07:41:43;14.40;99.90
37786;DHT22;23625;48.784;9.336;2022-10-17T07:44:09;14.60;99.90
37786;DHT22;23625;48.784;9.336;2022-10-17T07:46:35;14.80;99.90
37786;DHT22;23625;48.784;9.336;2022-10-17T07:49:01;15.00;99.90
37786;DHT22;23625;48.784;9.336;2022-10-17T07:51:27;15.20;99.90
37786;DHT22;23625;48.784;9.336;2022-10-17T07:53:52;15.40;99.90
37786;DHT22;23625;48.784;9.336;2022-10-17T07:56:18;15.70;99.90
37786;DHT22;23625;48.784;9.336;2022-10-17T07:58:45;15.80;99.90
37786;DHT22;23625;48.784;9.336;2022-10-17T08:01:12;16.00;99.90
37786;DHT22;23625;48.784;9.336;2022-10-17T08:03:40;16.20;99.90
37786;DHT22;23625;48.784;9.336;2022-10-17T08:06:05;16.40;99.90
37786;DHT22;23625;48.784;9.336;2022-10-17T08:08:31;16.60;99.90
37786;DHT22;23625;48.784;9.336;2022-10-17T08:11:02;16.90;99.90
37786;DHT22;23625;48.784;9.336;2022-10-17T08:13:28;17.10;99.90
37786;DHT22;23625;48.784;9.336;2022-10-17T08:15:57;17.40;99.90
37786;DHT22;23625;48.784;9.336;2022-10-17T08:18:22;17.50;99.90
37786;DHT22;23625;48.784;9.336;2022-10-17T08:20:48;17.70;99.90
37786;DHT22;23625;48.784;9.336;2022-10-17T08:23:14;17.70;99.90
37786;DHT22;23625;48.784;9.336;2022-10-17T08:25:39;17.90;99.90
37786;DHT22;23625;48.784;9.336;2022-10-17T08:28:05;18.00;99.90
37786;DHT22;23625;48.784;9.336;2022-10-17T08:30:31;18.20;99.90
37786;DHT22;23625;48.784;9.336;2022-10-17T08:32:57;18.40;99.90
37786;DHT22;23625;48.784;9.336;2022-10-17T08:35:22;18.50;99.90
37786;DHT22;23625;48.784;9.336;2022-10-17T08:37:48;18.70;99.90
37786;DHT22;23625;48.784;9.336;2022-10-17T08:40:24;18.90;99.90
37786;DHT22;23625;48.784;9.336;2022-10-17T08:45:43;19.20;99.90
37786;DHT22;23625;48.784;9.336;2022-10-17T08:48:13;19.40;99.90
37786;DHT22;23625;48.784;9.336;2022-10-17T08:50:55;19.50;99.90
37786;DHT22;23625;48.784;9.336;2022-10-17T08:56:24;19.70;99.90
37786;DHT22;23625;48.784;9.336;2022-10-17T08:58:51;19.90;99.90
37786;DHT22;23625;48.784;9.336;2022-10-17T09:17:51;21.30;99.10
37786;DHT22;23625;48.784;9.336;2022-10-17T09:20:24;21.50;98.20
37786;DHT22;23625;48.784;9.336;2022-10-17T09:25:21;21.80;96.40
37786;DHT22;23625;48.784;9.336;2022-10-17T09:27:50;21.90;94.80
37786;DHT22;23625;48.784;9.336;2022-10-17T09:33:18;21.90;94.90
37786;DHT22;23625;48.784;9.336;2022-10-17T09:35:44;21.90;94.80
37786;DHT22;23625;48.784;9.336;2022-10-17T09:38:20;22.00;95.00
37786;DHT22;23625;48.784;9.336;2022-10-17T09:40:58;22.10;95.50
37786;DHT22;23625;48.784;9.336;2022-10-17T09:43:24;22.10;94.20
37786;DHT22;23625;48.784;9.336;2022-10-17T09:46:33;22.10;94.30
37786;DHT22;23625;48.784;9.336;2022-10-17T09:49:16;22.10;95.00
37786;DHT22;23625;48.784;9.336;2022-10-17T09:51:42;22.20;95.50
37786;DHT22;23625;48.784;9.336;2022-10-17T09:54:21;22.40;96.30
37786;DHT22;23625;48.784;9.336;2022-10-17T09:57:06;22.40;95.60
37786;DHT22;23625;48.784;9.336;2022-10-17T09:59:35;22.40;94.90
37786;DHT22;23625;48.784;9.336;2022-10-17T10:04:52;22.50;95.10
37786;DHT22;23625;48.784;9.336;2022-10-17T10:07:18;22.60;95.50
37786;DHT22;23625;48.784;9.336;2022-10-17T10:09:46;22.60;94.80
37786;DHT22;23625;48.784;9.336;2022-10-17T10:12:21;22.70;96.20
37786;DHT22;23625;48.784;9.336;2022-10-17T10:14:48;22.70;96.90
37786;DHT22;23625;48.784;9.336;2022-10-17T10:17:35;22.80;95.80
37786;DHT22;23625;48.784;9.336;2022-10-17T10:20:03;23.00;95.30
37786;DHT22;23625;48.784;9.336;2022-10-17T10:25:29;23.00;93.80
37786;DHT22;23625;48.784;9.336;2022-10-17T10:27:54;23.00;92.30
37786;DHT22;23625;48.784;9.336;2022-10-17T10:30:25;23.10;93.50
37786;DHT22;23625;48.784;9.336;2022-10-17T10:32:52;23.10;92.40
37786;DHT22;23625;48.784;9.336;2022-10-17T10:35:21;23.20;94.10
37786;DHT22;23625;48.784;9.336;2022-10-17T10:37:55;23.10;94.80
37786;DHT22;23625;48.784;9.336;2022-10-17T10:40:35;23.30;94.70
37786;DHT22;23625;48.784;9.336;2022-10-17T10:43:04;23.30;93.70
37786;DHT22;23625;48.784;9.336;2022-10-17T10:45:40;23.30;94.20
37786;DHT22;23625;48.784;9.336;2022-10-17T10:48:25;23.30;95.30
37786;DHT22;23625;48.784;9.336;2022-10-17T10:50:59;23.40;94.60
37786;DHT22;23625;48.784;9.336;2022-10-17T10:53:43;23.30;94.10
37786;DHT22;23625;48.784;9.336;2022-10-17T11:01:40;22.90;95.70
37786;DHT22;23625;48.784;9.336;2022-10-17T11:09:57;23.10;95.20
37786;DHT22;23625;48.784;9.336;2022-10-17T11:12:53;23.20;91.60
37786;DHT22;23625;48.784;9.336;2022-10-17T11:18:16;23.60;95.10
37786;DHT22;23625;48.784;9.336;2022-10-17T11:23:47;24.10;90.60
37786;DHT22;23625;48.784;9.336;2022-10-17T11:26:26;24.20;89.10
37786;DHT22;23625;48.784;9.336;2022-10-17T11:28:56;24.40;87.40
37786;DHT22;23625;48.784;9.336;2022-10-17T11:31:26;24.60;81.40
37786;DHT22;23625;48.784;9.336;2022-10-17T11:33:55;24.70;77.70
37786;DHT22;23625;48.784;9.336;2022-10-17T11:36:26;25.00;79.40
37786;DHT22;23625;48.784;9.336;2022-10-17T11:39:01;25.40;76.90
37786;DHT22;23625;48.784;9.336;2022-10-17T11:43:59;25.80;71.00
37786;DHT22;23625;48.784;9.336;2022-10-17T11:46:28;26.10;70.90
37786;DHT22;23625;48.784;9.336;2022-10-17T11:49:14;26.20;67.90
37786;DHT22;23625;48.784;9.336;2022-10-17T11:54:38;26.50;67.90
37786;DHT22;23625;48.784;9.336;2022-10-17T12:13:59;27.20;65.00
37786;DHT22;23625;48.784;9.336;2022-10-17T12:19:20;27.30;62.90
37786;DHT22;23625;48.784;9.336;2022-10-17T12:24:30;27.40;62.70
37786;DHT22;23625;48.784;9.336;2022-10-17T12:26:57;27.60;63.10
37786;DHT22;23625;48.784;9.336;2022-10-17T12:29:27;27.90;62.00
37786;DHT22;23625;48.784;9.336;2022-10-17T12:32:09;27.90;60.40
37786;DHT22;23625;48.784;9.336;2022-10-17T12:34:35;28.00;59.80
37786;DHT22;23625;48.784;9.336;2022-10-17T12:37:02;28.00;58.60
37786;DHT22;23625;48.784;9.336;2022-10-17T12:41:53;28.20;55.70
37786;DHT22;23625;48.784;9.336;2022-10-17T12:47:26;28.20;53.80
37786;DHT22;23625;48.784;9.336;2022-10-17T12:49:50;28.20;52.60
37786;DHT22;23625;48.784;9.336;2022-10-17T12:57:57;28.10;50.80
37786;DHT22;23625;48.784;9.336;2022-10-17T13:03:04;28.30;51.40
37786;DHT22;23625;48.784;9.336;2022-10-17T13:05:33;28.30;51.20
37786;DHT22;23625;48.784;9.336;2022-10-17T13:08:02;28.30;51.30
37786;DHT22;23625;48.784;9.336;2022-10-17T13:10:34;28.40;51.70
37786;DHT22;23625;48.784;9.336;2022-10-17T13:13:18;28.50;51.70
37786;DHT22;23625;48.784;9.336;2022-10-17T13:15:50;28.50;51.70
37786;DHT22;23625;48.784;9.336;2022-10-17T13:18:25;28.60;52.00
37786;DHT22;23625;48.784;9.336;2022-10-17T13:21:12;28.50;52.30
37786;DHT22;23625;48.784;9.336;2022-10-17T13:23:38;28.30;52.30
37786;DHT22;23625;48.784;9.336;2022-10-17T13:28:39;27.90;52.50
37786;DHT22;23625;48.784;9.336;2022-10-17T13:31:06;28.10;54.10
37786;DHT22;23625;48.784;9.336;2022-10-17T13:33:38;28.20;53.10
37786;DHT22;23625;48.784;9.336;2022-10-17T13:36:06;28.00;53.00
37786;DHT22;23625;48.784;9.336;2022-10-17T13:38:33;27.80;52.10
37786;DHT22;23625;48.784;9.336;2022-10-17T13:41:01;28.00;52.80
37786;DHT22;23625;48.784;9.336;2022-10-17T13:43:28;27.80;55.20
37786;DHT22;23625;48.784;9.336;2022-10-17T13:46:01;27.30;59.00
37786;DHT22;23625;48.784;9.336;2022-10-17T13:48:32;27.00;61.90
37786;DHT22;23625;48.784;9.336;2022-10-17T13:51:02;26.80;63.80
37786;DHT22;23625;48.784;9.336;2022-10-17T13:53:36;26.50;66.50
37786;DHT22;23625;48.784;9.336;2022-10-17T13:56:23;26.50;66.00
37786;DHT22;23625;48.784;9.336;2022-10-17T13:59:07;26.40;67.30
37786;DHT22;23625;48.784;9.336;2022-10-17T14:01:40;26.20;66.10
37786;DHT22;23625;48.784;9.336;2022-10-17T14:04:05;26.10;69.20
37786;DHT22;23625;48.784;9.336;2022-10-17T14:06:31;26.00;68.80
37786;DHT22;23625;48.784;9.336;2022-10-17T14:09:04;26.00;70.90
37786;DHT22;23625;48.784;9.336;2022-10-17T14:11:34;26.00;70.00
37786;DHT22;23625;48.784;9.336;2022-10-17T14:14:02;26.00;67.80
37786;DHT22;23625;48.784;9.336;2022-10-17T14:16:41;25.90;69.60
37786;DHT22;23625;48.784;9.336;2022-10-17T14:19:26;25.90;71.90
37786;DHT22;23625;48.784;9.336;2022-10-17T14:22:38;25.80;71.90
37786;DHT22;23625;48.784;9.336;2022-10-17T14:24:39;25.70;72.10
37786;DHT22;23625;48.784;9.336;2022-10-17T14:29:56;25.50;72.90
37786;DHT22;23625;48.784;9.336;2022-10-17T14:32:27;25.40;73.00
37786;DHT22;23625;48.784;9.336;2022-10-17T14:34:54;25.40;73.10
37786;DHT22;23625;48.784;9.336;2022-10-17T14:37:45;25.40;74.70
37786;DHT22;23625;48.784;9.336;2022-10-17T14:40:23;25.30;75.00
37786;DHT22;23625;48.784;9.336;2022-10-17T14:42:50;25.50;70.60
37786;DHT22;23625;48.784;9.336;2022-10-17T14:47:48;25.20;73.70
37786;DHT22;23625;48.784;9.336;2022-10-17T14:52:40;25.10;71.40
37786;DHT22;23625;48.784;9.336;2022-10-17T14:55:24;24.90;72.80
37786;DHT22;23625;48.784;9.336;2022-10-17T14:57:51;24.80;75.80
37786;DHT22;23625;48.784;9.336;2022-10-17T15:00:18;24.70;76.20
37786;DHT22;23625;48.784;9.336;2022-10-17T15:02:45;24.70;77.50
37786;DHT22;23625;48.784;9.336;2022-10-17T15:05:11;24.80;90.10
37786;DHT22;23625;48.784;9.336;2022-10-17T15:07:37;24.70;92.00
37786;DHT22;23625;48.784;9.336;2022-10-17T15:10:03;24.40;94.40
37786;DHT22;23625;48.784;9.336;2022-10-17T15:12:29;24.30;96.90
37786;DHT22;23625;48.784;9.336;2022-10-17T15:14:57;24.10;98.70
37786;DHT22;23625;48.784;9.336;2022-10-17T15:17:27;23.90;99.70
37786;DHT22;23625;48.784;9.336;2022-10-17T15:19:54;23.80;99.70
37786;DHT22;23625;48.784;9.336;2022-10-17T15:22:20;23.50;99.90
37786;DHT22;23625;48.784;9.336;2022-10-17T15:24:46;23.30;99.90
37786;DHT22;23625;48.784;9.336;2022-10-17T15:27:18;23.20;99.90
37786;DHT22;23625;48.784;9.336;2022-10-17T15:29:45;23.10;99.90
37786;DHT22;23625;48.784;9.336;2022-10-17T15:32:11;23.00;99.90
37786;DHT22;23625;48.784;9.336;2022-10-17T15:34:37;22.90;99.90
37786;DHT22;23625;48.784;9.336;2022-10-17T15:37:04;22.70;99.90
37786;DHT22;23625;48.784;9.336;2022-10-17T15:39:30;22.50;99.90
37786;DHT22;23625;48.784;9.336;2022-10-17T15:41:56;22.20;99.90
37786;DHT22;23625;48.784;9.336;2022-10-17T15:44:22;22.00;99.90
37786;DHT22;23625;48.784;9.336;2022-10-17T15:46:47;21.80;99.90
37786;DHT22;23625;48.784;9.336;2022-10-17T15:49:16;21.70;99.90
37786;DHT22;23625;48.784;9.336;2022-10-17T15:51:42;21.60;99.90
37786;DHT22;23625;48.784;9.336;2022-10-17T15:54:08;21.40;99.90
37786;DHT22;23625;48.784;9.336;2022-10-17T15:56:41;21.10;99.90
37786;DHT22;23625;48.784;9.336;2022-10-17T15:59:14;21.00;99.90
37786;DHT22;23625;48.784;9.336;2022-10-17T16:01:40;20.80;99.90
37786;DHT22;23625;48.784;9.336;2022-10-17T16:04:10;20.60;99.90
37786;DHT22;23625;48.784;9.336;2022-10-17T16:06:37;20.40;99.90
37786;DHT22;23625;48.784;9.336;2022-10-17T16:09:03;20.30;99.90
37786;DHT22;23625;48.784;9.336;2022-10-17T16:13:57;20.10;99.90
37786;DHT22;23625;48.784;9.336;2022-10-17T16:16:23;20.00;99.90
37786;DHT22;23625;48.784;9.336;2022-10-17T16:18:48;19.90;99.90
37786;DHT22;23625;48.784;9.336;2022-10-17T16:21:15;19.80;99.90
37786;DHT22;23625;48.784;9.336;2022-10-17T16:23:42;19.70;99.90
37786;DHT22;23625;48.784;9.336;2022-10-17T16:26:08;19.50;99.90
37786;DHT22;23625;48.784;9.336;2022-10-17T16:28:34;19.40;99.90
37786;DHT22;23625;48.784;9.336;2022-10-17T16:31:00;19.30;99.90
37786;DHT22;23625;48.784;9.336;2022-10-17T16:33:26;19.20;99.90
37786;DHT22;23625;48.784;9.336;2022-10-17T16:35:51;19.20;99.90
37786;DHT22;23625;48.784;9.336;2022-10-17T16:38:17;19.10;99.90
37786;DHT22;23625;48.784;9.336;2022-10-17T16:40:43;18.90;99.90
37786;DHT22;23625;48.784;9.336;2022-10-17T16:43:12;18.80;99.90
37786;DHT22;23625;48.784;9.336;2022-10-17T16:45:38;18.60;99.90
37786;DHT22;23625;48.784;9.336;2022-10-17T16:48:04;18.60;99.90
37786;DHT22;23625;48.784;9.336;2022-10-17T16:50:30;18.50;99.90
37786;DHT22;23625;48.784;9.336;2022-10-17T16:53:00;18.40;99.90
37786;DHT22;23625;48.784;9.336;2022-10-17T16:55:26;18.30;99.90
37786;DHT22;23625;48.784;9.336;2022-10-17T16:57:51;18.20;99.90
37786;DHT22;23625;48.784;9.336;2022-10-17T17:00:17;18.20;99.90
37786;DHT22;23625;48.784;9.336;2022-10-17T17:02:43;18.10;99.90
37786;DHT22;23625;48.784;9.336;2022-10-17T17:05:11;18.00;99.90
37786;DHT22;23625;48.784;9.336;2022-10-17T17:07:37;17.80;99.90
37786;DHT22;23625;48.784;9.336;2022-10-17T17:10:03;17.80;99.90
37786;DHT22;23625;48.784;9.336;2022-10-17T17:12:31;17.70;99.90
37786;DHT22;23625;48.784;9.336;2022-10-17T17:14:57;17.70;99.90
37786;DHT22;23625;48.784;9.336;2022-10-17T17:17:23;17.60;99.90
37786;DHT22;23625;48.784;9.336;2022-10-17T17:19:48;17.50;99.90
37786;DHT22;23625;48.784;9.336;2022-10-17T17:22:14;17.50;99.90
37786;DHT22;23625;48.784;9.336;2022-10-17T17:24:39;17.40;99.90
37786;DHT22;23625;48.784;9.336;2022-10-17T17:27:05;17.40;99.90
37786;DHT22;23625;48.784;9.336;2022-10-17T17:29:30;17.30;99.90
37786;DHT22;23625;48.784;9.336;2022-10-17T17:31:56;17.30;99.90
37786;DHT22;23625;48.784;9.336;2022-10-17T17:34:22;17.20;99.90
37786;DHT22;23625;48.784;9.336;2022-10-17T17:36:47;17.10;99.90
37786;DHT22;23625;48.784;9.336;2022-10-17T17:39:14;17.00;99.90
37786;DHT22;23625;48.784;9.336;2022-10-17T17:41:41;16.90;99.90
37786;DHT22;23625;48.784;9.336;2022-10-17T17:44:08;16.90;99.90
37786;DHT22;23625;48.784;9.336;2022-10-17T17:46:34;16.90;99.90
37786;DHT22;23625;48.784;9.336;2022-10-17T17:49:00;16.90;99.90
37786;DHT22;23625;48.784;9.336;2022-10-17T17:51:26;16.80;99.90
37786;DHT22;23625;48.784;9.336;2022-10-17T17:53:53;16.80;99.90